sensor_id;sensor_type;location;lat;lon;timestamp;P1;durP1;ratioP1;P2;durP2;ratioP2
2474;SDS011;1248;48.694;10.160;2023-02-28T00:00:33;5.77;;;4.17;;
2474;SDS011;1248;48.694;10.160;2023-02-28T00:03:01;8.10;;;5.57;;
2474;SDS011;1248;48.694;10.160;2023-02-28T00:05:28;11.40;;;5.87;;
2474;SDS011;1248;48.694;10.160;2023-02-28T00:07:56;5.73;;;5.03;;
2474;SDS011;1248;48.694;10.160;2023-02-28T00:10:24;5.73;;;5.00;;
2474;SDS011;1248;48.694;10.160;2023-02-28T00:12:53;7.10;;;5.53;;
2474;SDS011;1248;48.694;10.160;2023-02-28T00:15:23;5.80;;;4.20;;
2474;SDS011;1248;48.694;10.160;2023-02-28T00:17:50;6.13;;;5.53;;
2474;SDS011;1248;48.694;10.160;2023-02-28T00:20:18;7.00;;;5.43;;
2474;SDS011;1248;48.694;10.160;2023-02-28T00:22:46;5.73;;;5.23;;
2474;SDS011;1248;48.694;10.160;2023-02-28T00:25:15;5.33;;;4.93;;
2474;SDS011;1248;48.694;10.160;2023-02-28T00:27:43;6.50;;;6.00;;
2474;SDS011;1248;48.694;10.160;2023-02-28T00:30:11;5.50;;;5.00;;
2474;SDS011;1248;48.694;10.160;2023-02-28T00:32:40;10.93;;;5.83;;
2474;SDS011;1248;48.694;10.160;2023-02-28T00:35:08;5.43;;;5.03;;
2474;SDS011;1248;48.694;10.160;2023-02-28T00:37:35;5.33;;;4.93;;
2474;SDS011;1248;48.694;10.160;2023-02-28T00:40:03;5.50;;;5.00;;
2474;SDS011;1248;48.694;10.160;2023-02-28T00:42:31;5.20;;;4.70;;
2474;SDS011;1248;48.694;10.160;2023-02-28T00:44:58;7.13;;;6.13;;
2474;SDS011;1248;48.694;10.160;2023-02-28T00:47:26;5.80;;;5.27;;
2474;SDS011;1248;48.694;10.160;2023-02-28T00:49:54;10.27;;;5.97;;
2474;SDS011;1248;48.694;10.160;2023-02-28T00:52:21;7.40;;;6.47;;
2474;SDS011;1248;48.694;10.160;2023-02-28T00:54:48;5.80;;;5.40;;
2474;SDS011;1248;48.694;10.160;2023-02-28T00:57:15;11.27;;;6.63;;
2474;SDS011;1248;48.694;10.160;2023-02-28T00:59:42;6.23;;;5.60;;
2474;SDS011;1248;48.694;10.160;2023-02-28T01:02:09;5.63;;;5.00;;
2474;SDS011;1248;48.694;10.160;2023-02-28T01:04:36;6.93;;;6.00;;
2474;SDS011;1248;48.694;10.160;2023-02-28T01:07:05;5.70;;;5.17;;
2474;SDS011;1248;48.694;10.160;2023-02-28T01:09:32;8.70;;;5.30;;
2474;SDS011;1248;48.694;10.160;2023-02-28T01:11:59;7.10;;;6.40;;
2474;SDS011;1248;48.694;10.160;2023-02-28T01:14:26;9.47;;;5.73;;
2474;SDS011;1248;48.694;10.160;2023-02-28T01:16:53;5.60;;;4.80;;
2474;SDS011;1248;48.694;10.160;2023-02-28T01:19:20;5.90;;;5.40;;
2474;SDS011;1248;48.694;10.160;2023-02-28T01:21:47;6.33;;;5.73;;
2474;SDS011;1248;48.694;10.160;2023-02-28T01:24:15;7.40;;;5.90;;
2474;SDS011;1248;48.694;10.160;2023-02-28T01:26:42;8.37;;;5.33;;
2474;SDS011;1248;48.694;10.160;2023-02-28T01:29:09;5.93;;;5.37;;
2474;SDS011;1248;48.694;10.160;2023-02-28T01:31:37;8.37;;;6.50;;
2474;SDS011;1248;48.694;10.160;2023-02-28T01:34:04;8.27;;;6.53;;
2474;SDS011;1248;48.694;10.160;2023-02-28T01:36:31;7.47;;;6.20;;
2474;SDS011;1248;48.694;10.160;2023-02-28T01:38:58;8.87;;;6.40;;
2474;SDS011;1248;48.694;10.160;2023-02-28T01:41:27;8.00;;;6.20;;
2474;SDS011;1248;48.694;10.160;2023-02-28T01:43:57;5.97;;;5.47;;
2474;SDS011;1248;48.694;10.160;2023-02-28T01:46:28;8.57;;;6.00;;
2474;SDS011;1248;48.694;10.160;2023-02-28T01:48:58;8.07;;;7.20;;
2474;SDS011;1248;48.694;10.160;2023-02-28T01:51:29;6.60;;;5.83;;
2474;SDS011;1248;48.694;10.160;2023-02-28T01:54:01;7.67;;;6.87;;
2474;SDS011;1248;48.694;10.160;2023-02-28T01:56:32;7.47;;;6.77;;
2474;SDS011;1248;48.694;10.160;2023-02-28T01:59:00;7.50;;;6.33;;
2474;SDS011;1248;48.694;10.160;2023-02-28T02:01:28;10.60;;;7.10;;
2474;SDS011;1248;48.694;10.160;2023-02-28T02:03:56;6.70;;;5.87;;
2474;SDS011;1248;48.694;10.160;2023-02-28T02:06:25;7.10;;;6.50;;
2474;SDS011;1248;48.694;10.160;2023-02-28T02:08:54;7.50;;;6.80;;
2474;SDS011;1248;48.694;10.160;2023-02-28T02:11:22;8.03;;;7.23;;
2474;SDS011;1248;48.694;10.160;2023-02-28T02:13:55;7.53;;;6.83;;
2474;SDS011;1248;48.694;10.160;2023-02-28T02:16:34;7.03;;;6.40;;
2474;SDS011;1248;48.694;10.160;2023-02-28T02:19:15;6.87;;;6.20;;
2474;SDS011;1248;48.694;10.160;2023-02-28T02:22:12;7.70;;;6.90;;
2474;SDS011;1248;48.694;10.160;2023-02-28T02:27:48;9.87;;;7.20;;
2474;SDS011;1248;48.694;10.160;2023-02-28T02:33:35;8.90;;;7.10;;
2474;SDS011;1248;48.694;10.160;2023-02-28T02:36:23;8.40;;;7.47;;
2474;SDS011;1248;48.694;10.160;2023-02-28T02:38:55;9.77;;;6.67;;
2474;SDS011;1248;48.694;10.160;2023-02-28T02:41:28;7.63;;;6.87;;
2474;SDS011;1248;48.694;10.160;2023-02-28T02:44:02;8.67;;;6.47;;
2474;SDS011;1248;48.694;10.160;2023-02-28T02:46:32;8.77;;;7.50;;
2474;SDS011;1248;48.694;10.160;2023-02-28T02:49:00;8.70;;;7.77;;
2474;SDS011;1248;48.694;10.160;2023-02-28T02:51:31;9.43;;;8.53;;
2474;SDS011;1248;48.694;10.160;2023-02-28T02:54:00;7.67;;;6.80;;
2474;SDS011;1248;48.694;10.160;2023-02-28T02:56:29;7.77;;;7.07;;
2474;SDS011;1248;48.694;10.160;2023-02-28T02:58:59;7.20;;;6.50;;
2474;SDS011;1248;48.694;10.160;2023-02-28T03:01:28;8.73;;;7.47;;
2474;SDS011;1248;48.694;10.160;2023-02-28T03:03:57;7.67;;;7.07;;
2474;SDS011;1248;48.694;10.160;2023-02-28T03:06:27;7.80;;;7.17;;
2474;SDS011;1248;48.694;10.160;2023-02-28T03:08:56;7.70;;;6.90;;
2474;SDS011;1248;48.694;10.160;2023-02-28T03:11:23;8.80;;;7.87;;
2474;SDS011;1248;48.694;10.160;2023-02-28T03:13:52;8.63;;;7.73;;
2474;SDS011;1248;48.694;10.160;2023-02-28T03:16:36;8.47;;;7.80;;
2474;SDS011;1248;48.694;10.160;2023-02-28T03:19:17;8.20;;;7.40;;
2474;SDS011;1248;48.694;10.160;2023-02-28T03:21:56;8.33;;;7.53;;
2474;SDS011;1248;48.694;10.160;2023-02-28T03:24:33;8.73;;;7.13;;
2474;SDS011;1248;48.694;10.160;2023-02-28T03:27:05;9.10;;;8.07;;
2474;SDS011;1248;48.694;10.160;2023-02-28T03:29:34;8.00;;;7.20;;
2474;SDS011;1248;48.694;10.160;2023-02-28T03:32:03;9.13;;;8.17;;
2474;SDS011;1248;48.694;10.160;2023-02-28T03:34:34;10.97;;;7.70;;
2474;SDS011;1248;48.694;10.160;2023-02-28T03:37:04;7.93;;;6.60;;
2474;SDS011;1248;48.694;10.160;2023-02-28T03:39:36;8.10;;;7.27;;
2474;SDS011;1248;48.694;10.160;2023-02-28T03:42:05;9.80;;;7.37;;
2474;SDS011;1248;48.694;10.160;2023-02-28T03:44:35;7.70;;;7.00;;
2474;SDS011;1248;48.694;10.160;2023-02-28T03:47:07;7.60;;;6.93;;
2474;SDS011;1248;48.694;10.160;2023-02-28T03:49:36;8.73;;;7.83;;
2474;SDS011;1248;48.694;10.160;2023-02-28T03:52:09;7.87;;;7.07;;
2474;SDS011;1248;48.694;10.160;2023-02-28T03:54:38;8.90;;;7.70;;
2474;SDS011;1248;48.694;10.160;2023-02-28T03:57:10;8.10;;;7.30;;
2474;SDS011;1248;48.694;10.160;2023-02-28T03:59:41;8.40;;;7.60;;
2474;SDS011;1248;48.694;10.160;2023-02-28T04:02:10;9.67;;;8.13;;
2474;SDS011;1248;48.694;10.160;2023-02-28T04:04:37;9.73;;;7.80;;
2474;SDS011;1248;48.694;10.160;2023-02-28T04:07:05;11.30;;;7.90;;
2474;SDS011;1248;48.694;10.160;2023-02-28T04:09:33;9.03;;;7.73;;
2474;SDS011;1248;48.694;10.160;2023-02-28T04:12:02;8.80;;;8.00;;
2474;SDS011;1248;48.694;10.160;2023-02-28T04:14:29;9.50;;;7.97;;
2474;SDS011;1248;48.694;10.160;2023-02-28T04:16:56;10.27;;;8.63;;
2474;SDS011;1248;48.694;10.160;2023-02-28T04:19:23;8.17;;;7.30;;
2474;SDS011;1248;48.694;10.160;2023-02-28T04:21:51;9.70;;;8.70;;
2474;SDS011;1248;48.694;10.160;2023-02-28T04:24:19;12.60;;;8.50;;
2474;SDS011;1248;48.694;10.160;2023-02-28T04:26:48;7.10;;;6.50;;
2474;SDS011;1248;48.694;10.160;2023-02-28T04:29:19;11.43;;;7.33;;
2474;SDS011;1248;48.694;10.160;2023-02-28T04:31:47;10.97;;;7.53;;
2474;SDS011;1248;48.694;10.160;2023-02-28T04:34:14;7.80;;;7.10;;
2474;SDS011;1248;48.694;10.160;2023-02-28T04:36:42;8.47;;;7.60;;
2474;SDS011;1248;48.694;10.160;2023-02-28T04:39:09;9.50;;;7.57;;
2474;SDS011;1248;48.694;10.160;2023-02-28T04:41:36;9.17;;;7.50;;
2474;SDS011;1248;48.694;10.160;2023-02-28T04:44:03;9.07;;;8.07;;
2474;SDS011;1248;48.694;10.160;2023-02-28T04:46:32;11.27;;;9.07;;
2474;SDS011;1248;48.694;10.160;2023-02-28T04:48:59;8.77;;;7.87;;
2474;SDS011;1248;48.694;10.160;2023-02-28T04:51:26;9.50;;;8.60;;
2474;SDS011;1248;48.694;10.160;2023-02-28T04:53:53;8.63;;;7.83;;
2474;SDS011;1248;48.694;10.160;2023-02-28T04:56:21;8.40;;;7.50;;
2474;SDS011;1248;48.694;10.160;2023-02-28T04:58:48;12.13;;;7.93;;
2474;SDS011;1248;48.694;10.160;2023-02-28T05:01:17;10.40;;;8.50;;
2474;SDS011;1248;48.694;10.160;2023-02-28T05:03:47;10.57;;;8.80;;
2474;SDS011;1248;48.694;10.160;2023-02-28T05:06:15;13.63;;;9.40;;
2474;SDS011;1248;48.694;10.160;2023-02-28T05:08:42;8.87;;;7.93;;
2474;SDS011;1248;48.694;10.160;2023-02-28T05:11:13;12.63;;;8.80;;
2474;SDS011;1248;48.694;10.160;2023-02-28T05:13:43;9.70;;;8.40;;
2474;SDS011;1248;48.694;10.160;2023-02-28T05:16:10;9.50;;;8.60;;
2474;SDS011;1248;48.694;10.160;2023-02-28T05:18:37;10.00;;;8.10;;
2474;SDS011;1248;48.694;10.160;2023-02-28T05:21:05;9.03;;;7.00;;
2474;SDS011;1248;48.694;10.160;2023-02-28T05:23:33;11.70;;;8.00;;
2474;SDS011;1248;48.694;10.160;2023-02-28T05:26:00;9.63;;;8.73;;
2474;SDS011;1248;48.694;10.160;2023-02-28T05:28:27;10.57;;;8.47;;
2474;SDS011;1248;48.694;10.160;2023-02-28T05:30:54;9.87;;;8.87;;
2474;SDS011;1248;48.694;10.160;2023-02-28T05:33:21;9.10;;;8.10;;
2474;SDS011;1248;48.694;10.160;2023-02-28T05:35:48;15.23;;;9.77;;
2474;SDS011;1248;48.694;10.160;2023-02-28T05:38:16;10.73;;;8.63;;
2474;SDS011;1248;48.694;10.160;2023-02-28T05:40:44;9.70;;;8.70;;
2474;SDS011;1248;48.694;10.160;2023-02-28T05:43:11;10.80;;;7.70;;
2474;SDS011;1248;48.694;10.160;2023-02-28T05:45:38;12.43;;;9.80;;
2474;SDS011;1248;48.694;10.160;2023-02-28T05:48:05;13.13;;;9.07;;
2474;SDS011;1248;48.694;10.160;2023-02-28T05:50:32;9.50;;;8.27;;
2474;SDS011;1248;48.694;10.160;2023-02-28T05:52:59;11.93;;;9.23;;
2474;SDS011;1248;48.694;10.160;2023-02-28T05:55:28;10.70;;;8.80;;
2474;SDS011;1248;48.694;10.160;2023-02-28T05:57:55;10.20;;;9.10;;
2474;SDS011;1248;48.694;10.160;2023-02-28T06:00:22;10.40;;;9.30;;
2474;SDS011;1248;48.694;10.160;2023-02-28T06:02:49;10.43;;;9.10;;
2474;SDS011;1248;48.694;10.160;2023-02-28T06:05:18;11.87;;;9.40;;
2474;SDS011;1248;48.694;10.160;2023-02-28T06:07:46;10.90;;;9.80;;
2474;SDS011;1248;48.694;10.160;2023-02-28T06:10:13;9.90;;;9.00;;
2474;SDS011;1248;48.694;10.160;2023-02-28T06:12:41;13.30;;;8.93;;
2474;SDS011;1248;48.694;10.160;2023-02-28T06:15:10;9.90;;;8.60;;
2474;SDS011;1248;48.694;10.160;2023-02-28T06:17:39;10.83;;;9.60;;
2474;SDS011;1248;48.694;10.160;2023-02-28T06:20:07;14.97;;;10.10;;
2474;SDS011;1248;48.694;10.160;2023-02-28T06:22:35;15.20;;;11.17;;
2474;SDS011;1248;48.694;10.160;2023-02-28T06:25:02;11.90;;;10.67;;
2474;SDS011;1248;48.694;10.160;2023-02-28T06:27:30;12.10;;;8.67;;
2474;SDS011;1248;48.694;10.160;2023-02-28T06:29:58;13.57;;;10.13;;
2474;SDS011;1248;48.694;10.160;2023-02-28T06:32:25;11.83;;;9.43;;
2474;SDS011;1248;48.694;10.160;2023-02-28T06:34:52;15.00;;;9.53;;
2474;SDS011;1248;48.694;10.160;2023-02-28T06:37:19;14.23;;;10.10;;
2474;SDS011;1248;48.694;10.160;2023-02-28T06:39:46;11.13;;;10.03;;
2474;SDS011;1248;48.694;10.160;2023-02-28T06:42:14;15.10;;;10.60;;
2474;SDS011;1248;48.694;10.160;2023-02-28T06:44:41;12.73;;;10.60;;
2474;SDS011;1248;48.694;10.160;2023-02-28T06:47:10;13.53;;;9.63;;
2474;SDS011;1248;48.694;10.160;2023-02-28T06:49:37;10.03;;;9.00;;
2474;SDS011;1248;48.694;10.160;2023-02-28T06:52:04;12.77;;;10.67;;
2474;SDS011;1248;48.694;10.160;2023-02-28T06:54:31;12.80;;;9.77;;
2474;SDS011;1248;48.694;10.160;2023-02-28T06:56:58;17.00;;;10.50;;
2474;SDS011;1248;48.694;10.160;2023-02-28T06:59:25;12.57;;;9.60;;
2474;SDS011;1248;48.694;10.160;2023-02-28T07:01:52;12.77;;;9.50;;
2474;SDS011;1248;48.694;10.160;2023-02-28T07:04:21;15.40;;;10.43;;
2474;SDS011;1248;48.694;10.160;2023-02-28T07:06:49;11.73;;;10.53;;
2474;SDS011;1248;48.694;10.160;2023-02-28T07:09:16;12.67;;;9.43;;
2474;SDS011;1248;48.694;10.160;2023-02-28T07:11:44;14.07;;;9.83;;
2474;SDS011;1248;48.694;10.160;2023-02-28T07:14:11;14.77;;;9.93;;
2474;SDS011;1248;48.694;10.160;2023-02-28T07:16:38;12.73;;;10.10;;
2474;SDS011;1248;48.694;10.160;2023-02-28T07:19:05;13.67;;;10.40;;
2474;SDS011;1248;48.694;10.160;2023-02-28T07:21:34;14.00;;;10.60;;
2474;SDS011;1248;48.694;10.160;2023-02-28T07:24:01;12.23;;;9.23;;
2474;SDS011;1248;48.694;10.160;2023-02-28T07:26:28;13.67;;;12.27;;
2474;SDS011;1248;48.694;10.160;2023-02-28T07:28:55;14.67;;;10.53;;
2474;SDS011;1248;48.694;10.160;2023-02-28T07:31:22;13.03;;;10.00;;
2474;SDS011;1248;48.694;10.160;2023-02-28T07:33:49;11.90;;;9.57;;
2474;SDS011;1248;48.694;10.160;2023-02-28T07:36:16;12.23;;;10.50;;
2474;SDS011;1248;48.694;10.160;2023-02-28T07:38:47;11.37;;;9.57;;
2474;SDS011;1248;48.694;10.160;2023-02-28T07:41:15;12.70;;;10.10;;
2474;SDS011;1248;48.694;10.160;2023-02-28T07:43:42;14.50;;;10.27;;
2474;SDS011;1248;48.694;10.160;2023-02-28T07:46:10;11.17;;;9.57;;
2474;SDS011;1248;48.694;10.160;2023-02-28T07:48:40;12.77;;;9.47;;
2474;SDS011;1248;48.694;10.160;2023-02-28T07:51:07;11.83;;;9.30;;
2474;SDS011;1248;48.694;10.160;2023-02-28T07:53:34;16.90;;;10.60;;
2474;SDS011;1248;48.694;10.160;2023-02-28T07:56:03;14.47;;;10.07;;
2474;SDS011;1248;48.694;10.160;2023-02-28T07:58:31;12.67;;;9.57;;
2474;SDS011;1248;48.694;10.160;2023-02-28T08:01:04;13.50;;;10.03;;
2474;SDS011;1248;48.694;10.160;2023-02-28T08:03:32;17.03;;;10.43;;
2474;SDS011;1248;48.694;10.160;2023-02-28T08:05:59;11.00;;;9.90;;
2474;SDS011;1248;48.694;10.160;2023-02-28T08:08:27;14.97;;;11.03;;
2474;SDS011;1248;48.694;10.160;2023-02-28T08:10:57;17.90;;;11.13;;
2474;SDS011;1248;48.694;10.160;2023-02-28T08:13:27;15.57;;;11.13;;
2474;SDS011;1248;48.694;10.160;2023-02-28T08:16:00;13.80;;;11.30;;
2474;SDS011;1248;48.694;10.160;2023-02-28T08:18:28;15.77;;;12.60;;
2474;SDS011;1248;48.694;10.160;2023-02-28T08:20:55;13.50;;;11.50;;
2474;SDS011;1248;48.694;10.160;2023-02-28T08:23:23;16.17;;;11.20;;
2474;SDS011;1248;48.694;10.160;2023-02-28T08:25:52;15.43;;;12.03;;
2474;SDS011;1248;48.694;10.160;2023-02-28T08:28:20;12.70;;;11.27;;
2474;SDS011;1248;48.694;10.160;2023-02-28T08:30:48;14.43;;;10.80;;
2474;SDS011;1248;48.694;10.160;2023-02-28T08:33:15;14.17;;;11.33;;
2474;SDS011;1248;48.694;10.160;2023-02-28T08:35:42;15.60;;;11.50;;
2474;SDS011;1248;48.694;10.160;2023-02-28T08:38:09;16.97;;;9.67;;
2474;SDS011;1248;48.694;10.160;2023-02-28T08:40:36;14.40;;;11.23;;
2474;SDS011;1248;48.694;10.160;2023-02-28T08:43:03;12.53;;;10.20;;
2474;SDS011;1248;48.694;10.160;2023-02-28T08:45:30;16.90;;;11.97;;
2474;SDS011;1248;48.694;10.160;2023-02-28T08:47:59;15.17;;;12.70;;
2474;SDS011;1248;48.694;10.160;2023-02-28T08:50:26;16.30;;;10.90;;
2474;SDS011;1248;48.694;10.160;2023-02-28T08:52:53;15.10;;;10.80;;
2474;SDS011;1248;48.694;10.160;2023-02-28T08:55:20;15.43;;;11.70;;
2474;SDS011;1248;48.694;10.160;2023-02-28T08:57:47;14.43;;;11.30;;
2474;SDS011;1248;48.694;10.160;2023-02-28T09:00:15;14.00;;;11.20;;
2474;SDS011;1248;48.694;10.160;2023-02-28T09:02:42;16.40;;;11.03;;
2474;SDS011;1248;48.694;10.160;2023-02-28T09:05:10;13.33;;;10.70;;
2474;SDS011;1248;48.694;10.160;2023-02-28T09:07:37;11.50;;;10.03;;
2474;SDS011;1248;48.694;10.160;2023-02-28T09:10:04;16.80;;;11.60;;
2474;SDS011;1248;48.694;10.160;2023-02-28T09:12:34;12.13;;;10.83;;
2474;SDS011;1248;48.694;10.160;2023-02-28T09:15:02;16.53;;;11.60;;
2474;SDS011;1248;48.694;10.160;2023-02-28T09:17:29;14.40;;;11.00;;
2474;SDS011;1248;48.694;10.160;2023-02-28T09:19:56;17.10;;;11.30;;
2474;SDS011;1248;48.694;10.160;2023-02-28T09:22:25;14.87;;;11.77;;
2474;SDS011;1248;48.694;10.160;2023-02-28T09:24:52;12.70;;;10.57;;
2474;SDS011;1248;48.694;10.160;2023-02-28T09:27:19;20.10;;;11.83;;
2474;SDS011;1248;48.694;10.160;2023-02-28T09:29:46;14.13;;;10.70;;
2474;SDS011;1248;48.694;10.160;2023-02-28T09:32:14;14.63;;;12.13;;
2474;SDS011;1248;48.694;10.160;2023-02-28T09:34:41;16.67;;;11.30;;
2474;SDS011;1248;48.694;10.160;2023-02-28T09:37:08;15.00;;;10.90;;
2474;SDS011;1248;48.694;10.160;2023-02-28T09:39:36;15.20;;;11.40;;
2474;SDS011;1248;48.694;10.160;2023-02-28T09:42:03;12.03;;;10.40;;
2474;SDS011;1248;48.694;10.160;2023-02-28T09:44:33;15.63;;;11.20;;
2474;SDS011;1248;48.694;10.160;2023-02-28T09:47:05;12.13;;;10.83;;
2474;SDS011;1248;48.694;10.160;2023-02-28T09:49:37;12.10;;;10.57;;
2474;SDS011;1248;48.694;10.160;2023-02-28T09:52:08;14.87;;;10.33;;
2474;SDS011;1248;48.694;10.160;2023-02-28T09:54:38;15.70;;;10.97;;
2474;SDS011;1248;48.694;10.160;2023-02-28T09:57:07;12.93;;;10.50;;
2474;SDS011;1248;48.694;10.160;2023-02-28T09:59:38;19.13;;;11.87;;
2474;SDS011;1248;48.694;10.160;2023-02-28T10:02:12;17.23;;;13.17;;
2474;SDS011;1248;48.694;10.160;2023-02-28T10:04:48;15.67;;;11.23;;
2474;SDS011;1248;48.694;10.160;2023-02-28T10:07:29;12.07;;;9.70;;
2474;SDS011;1248;48.694;10.160;2023-02-28T10:10:17;19.40;;;10.73;;
2474;SDS011;1248;48.694;10.160;2023-02-28T10:12:46;14.57;;;10.47;;
2474;SDS011;1248;48.694;10.160;2023-02-28T10:15:14;13.70;;;9.23;;
2474;SDS011;1248;48.694;10.160;2023-02-28T10:17:42;13.73;;;10.07;;
2474;SDS011;1248;48.694;10.160;2023-02-28T10:20:11;12.60;;;9.70;;
2474;SDS011;1248;48.694;10.160;2023-02-28T10:22:41;13.67;;;11.47;;
2474;SDS011;1248;48.694;10.160;2023-02-28T10:25:19;13.97;;;11.37;;
2474;SDS011;1248;48.694;10.160;2023-02-28T10:27:48;13.13;;;9.93;;
2474;SDS011;1248;48.694;10.160;2023-02-28T10:30:16;15.10;;;10.87;;
2474;SDS011;1248;48.694;10.160;2023-02-28T10:32:45;14.53;;;9.60;;
2474;SDS011;1248;48.694;10.160;2023-02-28T10:35:15;14.63;;;10.40;;
2474;SDS011;1248;48.694;10.160;2023-02-28T10:37:44;17.23;;;11.00;;
2474;SDS011;1248;48.694;10.160;2023-02-28T10:40:26;12.77;;;10.40;;
2474;SDS011;1248;48.694;10.160;2023-02-28T10:42:59;13.53;;;10.97;;
2474;SDS011;1248;48.694;10.160;2023-02-28T10:45:27;17.20;;;10.00;;
2474;SDS011;1248;48.694;10.160;2023-02-28T10:47:58;15.03;;;10.50;;
2474;SDS011;1248;48.694;10.160;2023-02-28T10:50:27;14.70;;;9.63;;
2474;SDS011;1248;48.694;10.160;2023-02-28T10:53:05;14.20;;;10.77;;
2474;SDS011;1248;48.694;10.160;2023-02-28T10:55:37;11.77;;;10.40;;
2474;SDS011;1248;48.694;10.160;2023-02-28T10:58:11;13.87;;;10.57;;
2474;SDS011;1248;48.694;10.160;2023-02-28T11:00:47;15.80;;;10.40;;
2474;SDS011;1248;48.694;10.160;2023-02-28T11:03:22;10.67;;;9.57;;
2474;SDS011;1248;48.694;10.160;2023-02-28T11:05:51;11.27;;;9.13;;
2474;SDS011;1248;48.694;10.160;2023-02-28T11:08:18;14.17;;;11.30;;
2474;SDS011;1248;48.694;10.160;2023-02-28T11:10:47;15.70;;;10.33;;
2474;SDS011;1248;48.694;10.160;2023-02-28T11:13:16;11.80;;;9.43;;
2474;SDS011;1248;48.694;10.160;2023-02-28T11:15:49;14.40;;;10.40;;
2474;SDS011;1248;48.694;10.160;2023-02-28T11:18:24;11.80;;;10.30;;
2474;SDS011;1248;48.694;10.160;2023-02-28T11:20:55;12.50;;;9.50;;
2474;SDS011;1248;48.694;10.160;2023-02-28T11:23:24;11.38;;;9.15;;
2474;SDS011;1248;48.694;10.160;2023-02-28T11:25:55;13.17;;;9.50;;
2474;SDS011;1248;48.694;10.160;2023-02-28T11:28:25;16.07;;;9.83;;
2474;SDS011;1248;48.694;10.160;2023-02-28T11:31:02;13.53;;;10.70;;
2474;SDS011;1248;48.694;10.160;2023-02-28T11:33:31;13.70;;;9.50;;
2474;SDS011;1248;48.694;10.160;2023-02-28T11:36:00;14.80;;;10.60;;
2474;SDS011;1248;48.694;10.160;2023-02-28T11:38:30;11.23;;;9.33;;
2474;SDS011;1248;48.694;10.160;2023-02-28T11:41:05;12.13;;;9.90;;
2474;SDS011;1248;48.694;10.160;2023-02-28T11:43:40;12.20;;;9.70;;
2474;SDS011;1248;48.694;10.160;2023-02-28T11:46:20;15.73;;;9.70;;
2474;SDS011;1248;48.694;10.160;2023-02-28T11:48:54;14.50;;;10.67;;
2474;SDS011;1248;48.694;10.160;2023-02-28T11:51:27;11.13;;;9.20;;
2474;SDS011;1248;48.694;10.160;2023-02-28T11:54:08;14.10;;;11.27;;
2474;SDS011;1248;48.694;10.160;2023-02-28T11:56:49;11.13;;;9.03;;
2474;SDS011;1248;48.694;10.160;2023-02-28T11:59:27;12.77;;;10.00;;
2474;SDS011;1248;48.694;10.160;2023-02-28T12:02:22;13.97;;;11.20;;
2474;SDS011;1248;48.694;10.160;2023-02-28T12:04:58;12.77;;;9.73;;
2474;SDS011;1248;48.694;10.160;2023-02-28T12:07:37;11.90;;;9.27;;
2474;SDS011;1248;48.694;10.160;2023-02-28T12:10:11;13.63;;;9.63;;
2474;SDS011;1248;48.694;10.160;2023-02-28T12:12:46;14.63;;;10.37;;
2474;SDS011;1248;48.694;10.160;2023-02-28T12:15:27;11.10;;;9.40;;
2474;SDS011;1248;48.694;10.160;2023-02-28T12:18:12;13.70;;;9.97;;
2474;SDS011;1248;48.694;10.160;2023-02-28T12:20:45;13.10;;;9.77;;
2474;SDS011;1248;48.694;10.160;2023-02-28T12:23:22;11.53;;;8.70;;
2474;SDS011;1248;48.694;10.160;2023-02-28T12:25:55;13.40;;;9.43;;
2474;SDS011;1248;48.694;10.160;2023-02-28T12:28:33;14.03;;;10.03;;
2474;SDS011;1248;48.694;10.160;2023-02-28T12:31:03;12.50;;;9.80;;
2474;SDS011;1248;48.694;10.160;2023-02-28T12:33:33;14.23;;;9.10;;
2474;SDS011;1248;48.694;10.160;2023-02-28T12:36:03;11.73;;;9.70;;
2474;SDS011;1248;48.694;10.160;2023-02-28T12:38:34;12.57;;;10.10;;
2474;SDS011;1248;48.694;10.160;2023-02-28T12:41:04;13.33;;;9.93;;
2474;SDS011;1248;48.694;10.160;2023-02-28T12:43:36;11.63;;;8.60;;
2474;SDS011;1248;48.694;10.160;2023-02-28T12:46:07;9.27;;;8.33;;
2474;SDS011;1248;48.694;10.160;2023-02-28T12:48:37;12.50;;;9.53;;
2474;SDS011;1248;48.694;10.160;2023-02-28T12:51:06;13.30;;;10.13;;
2474;SDS011;1248;48.694;10.160;2023-02-28T12:53:35;16.10;;;9.57;;
2474;SDS011;1248;48.694;10.160;2023-02-28T12:56:15;14.87;;;10.77;;
2474;SDS011;1248;48.694;10.160;2023-02-28T12:58:47;16.27;;;10.67;;
2474;SDS011;1248;48.694;10.160;2023-02-28T13:01:30;15.70;;;10.97;;
2474;SDS011;1248;48.694;10.160;2023-02-28T13:04:36;15.50;;;10.03;;
2474;SDS011;1248;48.694;10.160;2023-02-28T13:10:05;14.03;;;9.20;;
2474;SDS011;1248;48.694;10.160;2023-02-28T13:12:33;13.03;;;9.03;;
2474;SDS011;1248;48.694;10.160;2023-02-28T13:15:04;12.67;;;9.03;;
2474;SDS011;1248;48.694;10.160;2023-02-28T13:17:36;13.17;;;9.97;;
2474;SDS011;1248;48.694;10.160;2023-02-28T13:20:04;11.63;;;9.20;;
2474;SDS011;1248;48.694;10.160;2023-02-28T13:22:40;8.73;;;7.83;;
2474;SDS011;1248;48.694;10.160;2023-02-28T13:31:21;11.93;;;9.30;;
2474;SDS011;1248;48.694;10.160;2023-02-28T13:36:40;10.30;;;9.27;;
2474;SDS011;1248;48.694;10.160;2023-02-28T13:42:23;10.23;;;8.30;;
2474;SDS011;1248;48.694;10.160;2023-02-28T13:47:53;11.27;;;9.30;;
2474;SDS011;1248;48.694;10.160;2023-02-28T13:50:24;9.80;;;8.53;;
2474;SDS011;1248;48.694;10.160;2023-02-28T13:52:57;9.53;;;8.50;;
2474;SDS011;1248;48.694;10.160;2023-02-28T13:55:44;11.13;;;9.83;;
2474;SDS011;1248;48.694;10.160;2023-02-28T13:58:20;10.40;;;9.27;;
2474;SDS011;1248;48.694;10.160;2023-02-28T14:01:03;10.23;;;8.70;;
2474;SDS011;1248;48.694;10.160;2023-02-28T14:03:56;9.90;;;8.00;;
2474;SDS011;1248;48.694;10.160;2023-02-28T14:06:29;10.87;;;7.83;;
2474;SDS011;1248;48.694;10.160;2023-02-28T14:08:58;9.77;;;8.63;;
2474;SDS011;1248;48.694;10.160;2023-02-28T14:11:30;11.33;;;8.90;;
2474;SDS011;1248;48.694;10.160;2023-02-28T14:13:59;12.57;;;9.30;;
2474;SDS011;1248;48.694;10.160;2023-02-28T14:16:27;10.23;;;9.03;;
2474;SDS011;1248;48.694;10.160;2023-02-28T14:19:03;11.10;;;9.70;;
2474;SDS011;1248;48.694;10.160;2023-02-28T14:21:38;11.63;;;9.83;;
2474;SDS011;1248;48.694;10.160;2023-02-28T14:24:20;12.30;;;8.70;;
2474;SDS011;1248;48.694;10.160;2023-02-28T14:27:15;10.83;;;9.47;;
2474;SDS011;1248;48.694;10.160;2023-02-28T14:30:11;10.13;;;9.13;;
2474;SDS011;1248;48.694;10.160;2023-02-28T14:32:47;10.93;;;8.93;;
2474;SDS011;1248;48.694;10.160;2023-02-28T14:35:27;11.80;;;9.30;;
2474;SDS011;1248;48.694;10.160;2023-02-28T14:38:04;10.97;;;9.80;;
2474;SDS011;1248;48.694;10.160;2023-02-28T14:40:33;12.83;;;9.53;;
2474;SDS011;1248;48.694;10.160;2023-02-28T14:43:01;10.90;;;9.10;;
2474;SDS011;1248;48.694;10.160;2023-02-28T14:45:30;13.20;;;9.87;;
2474;SDS011;1248;48.694;10.160;2023-02-28T14:47:58;10.87;;;9.40;;
2474;SDS011;1248;48.694;10.160;2023-02-28T14:50:29;13.20;;;8.80;;
2474;SDS011;1248;48.694;10.160;2023-02-28T14:52:57;11.27;;;10.10;;
2474;SDS011;1248;48.694;10.160;2023-02-28T14:55:26;12.40;;;9.77;;
2474;SDS011;1248;48.694;10.160;2023-02-28T14:57:55;12.83;;;8.93;;
2474;SDS011;1248;48.694;10.160;2023-02-28T15:00:24;10.83;;;9.30;;
2474;SDS011;1248;48.694;10.160;2023-02-28T15:02:52;9.90;;;8.27;;
2474;SDS011;1248;48.694;10.160;2023-02-28T15:05:23;12.80;;;8.87;;
2474;SDS011;1248;48.694;10.160;2023-02-28T15:08:02;12.27;;;9.93;;
2474;SDS011;1248;48.694;10.160;2023-02-28T15:10:31;12.83;;;9.90;;
2474;SDS011;1248;48.694;10.160;2023-02-28T15:13:00;12.37;;;10.00;;
2474;SDS011;1248;48.694;10.160;2023-02-28T15:15:33;11.77;;;9.70;;
2474;SDS011;1248;48.694;10.160;2023-02-28T15:18:07;13.27;;;10.27;;
2474;SDS011;1248;48.694;10.160;2023-02-28T15:20:43;11.20;;;9.63;;
2474;SDS011;1248;48.694;10.160;2023-02-28T15:23:12;14.53;;;9.90;;
2474;SDS011;1248;48.694;10.160;2023-02-28T15:25:39;13.23;;;10.10;;
2474;SDS011;1248;48.694;10.160;2023-02-28T15:28:09;15.10;;;9.60;;
2474;SDS011;1248;48.694;10.160;2023-02-28T15:30:40;9.70;;;8.70;;